Details From KSBP - San Luis Co Rgnl
To KIZA - SANTA YNEZ
Flight Number -
Tags decoded
Created
Modified
Stats Distance 50 nm / 93 km
Max Altitude 0 ft / 0 m
Waypoints 5
Social Downloads 0
Likes 0
Share VATSIM

Download

Looking for another format? Having issues loading an existing format? Contact us
Advertisement - Login to hide

Notes

Requested: KSBP AVILA ORCUT AFOXY KIZA

Route

KSBP AVILA ORCUT AFOXY KIZA

ID Type Via Altitude Latitude Longitude Leg Dist Tot Dist Heading (true) Name
O KSBP APT - 0 ft / 0 m 35.23714˚ -120.64346˚ - 0 nm - San Luis Co Rgnl
AVILA FIX - 0 ft / 0 m 35.14636˚ -120.66045˚ 5 nm 5 nm 189° / 189° -
ORCUT FIX - 0 ft / 0 m 34.85474˚ -120.38915˚ 22 nm 27 nm 143° / 143° -
AFOXY FIX - 0 ft / 0 m 34.60868˚ -120.16213˚ 18 nm 46 nm 143° / 143° -
O KIZA APT - 0 ft / 0 m 34.60682˚ -120.07555˚ 4 nm 50 nm 91° / 92° SANTA YNEZ

Altitude Profile

Advertisement - Login to hide

KSBP

Details ICAO KSBP (SBP)
Name San Luis Co Rgnl
Region United States
Timezone America/Los_Angeles (UTC-7.0)
Stats Elevation 212 ft / 65 m (AMSL)
Location 35.237141° -120.643460°
Runways 2
Magnetic Variation 12.639° E

METAR

KSBP 240556Z AUTO 31006KT 10SM SCT013 12/10 A3002 RMK AO2 SLP165 T01220100 10200 20122 51013

Decode

TAF

KSBP 240523Z 2406/2506 32008KT P6SM OVC025 FM240800 VRB03KT P6SM OVC015 FM241400 VRB03KT P6SM OVC025 FM242000 29010KT P6SM SCT035 FM250400 VRB03KT P6SM BKN025

Decode

Departure Runways

ID Width Length Bearing (true) Bearing (mag) Surface Threshold Offset Overrun Length
07 98 ft / 30 m 2,522 ft / 769 m 89.79° 77.15° Asphalt 0 ft / 0 m 0 ft / 0 m
11 151 ft / 46 m 6,106 ft / 1,861 m 124.87° 112.23° Asphalt 801 ft / 244 m 600 ft / 183 m
25 98 ft / 30 m 2,522 ft / 769 m 269.80° 257.16° Asphalt 0 ft / 0 m 0 ft / 0 m
29 151 ft / 46 m 6,106 ft / 1,861 m 304.88° 292.24° Asphalt 499 ft / 152 m 600 ft / 183 m

KIZA

Details ICAO KIZA
Name SANTA YNEZ
Region United States
Timezone America/Los_Angeles (UTC-7.0)
Stats Elevation 671 ft / 205 m (AMSL)
Location 34.606817° -120.075550°
Runways 1
Magnetic Variation 12.411° E

METAR

KIZA 240615Z AUTO 30003KT 10SM BKN014 BKN019 11/09 A3003 RMK AO2

Decode

TAF

Not found

Destination Runways

ID Width Length Bearing (true) Bearing (mag) Surface Threshold Offset Overrun Length
08 75 ft / 23 m 2,798 ft / 853 m 98.28° 85.87° Asphalt 0 ft / 0 m 0 ft / 0 m
26 75 ft / 23 m 2,798 ft / 853 m 278.29° 265.88° Asphalt 0 ft / 0 m 0 ft / 0 m

Popular Alternatives